createdAt,value
2019-02-24T00:00:58.091Z,33.03
2019-02-24T00:03:25.567Z,34.33
2019-02-24T00:05:53.092Z,31.33
2019-02-24T00:08:20.922Z,33.60
2019-02-24T00:10:48.432Z,28.93
2019-02-24T00:13:15.915Z,33.77
2019-02-24T00:15:43.444Z,31.93
2019-02-24T00:18:10.914Z,34.60
2019-02-24T00:20:38.419Z,37.37
2019-02-24T00:23:05.905Z,32.83
2019-02-24T00:25:33.396Z,32.00
2019-02-24T00:28:06.885Z,36.30
2019-02-24T00:30:30.198Z,29.97
2019-02-24T00:32:57.715Z,26.57
2019-02-24T00:35:25.227Z,27.30
2019-02-24T00:37:52.783Z,27.33
2019-02-24T00:40:20.347Z,29.43
2019-02-24T00:42:47.813Z,31.77
2019-02-24T00:45:15.363Z,31.97
2019-02-24T00:47:42.931Z,36.40
2019-02-24T00:50:10.382Z,27.83
2019-02-24T00:52:37.872Z,28.53
2019-02-24T00:55:05.538Z,28.33
2019-02-24T00:57:33.027Z,36.50
2019-02-24T01:00:00.521Z,34.63
2019-02-24T01:02:28.295Z,33.70
2019-02-24T01:04:55.763Z,30.73
2019-02-24T01:07:23.236Z,34.00
2019-02-24T01:09:50.736Z,29.90
2019-02-24T01:12:18.258Z,35.33
2019-02-24T01:14:45.749Z,33.83
2019-02-24T01:17:13.264Z,32.10
2019-02-24T01:19:40.735Z,32.57
2019-02-24T01:22:08.240Z,34.00
2019-02-24T01:24:35.765Z,32.30
2019-02-24T01:27:03.291Z,33.93
2019-02-24T01:29:30.757Z,36.77
2019-02-24T01:31:58.261Z,33.33
2019-02-24T01:34:25.746Z,40.63
2019-02-24T01:36:53.218Z,34.53
2019-02-24T01:39:20.683Z,34.33
2019-02-24T01:41:48.207Z,35.70
2019-02-24T01:44:15.711Z,37.90
2019-02-24T01:46:43.257Z,32.50
2019-02-24T01:49:10.844Z,32.97
2019-02-24T01:51:38.687Z,32.43
2019-02-24T01:54:06.195Z,29.30
2019-02-24T01:56:34.046Z,32.67
2019-02-24T01:59:01.549Z,39.37
2019-02-24T02:01:29.009Z,36.13
2019-02-24T02:03:56.500Z,32.27
2019-02-24T02:06:23.971Z,31.90
2019-02-24T02:08:51.484Z,33.70
2019-02-24T02:11:18.944Z,31.03
2019-02-24T02:13:46.448Z,35.70
2019-02-24T02:16:13.924Z,31.63
2019-02-24T02:18:41.443Z,33.10
2019-02-24T02:21:08.911Z,33.90
2019-02-24T02:23:36.404Z,34.70
2019-02-24T02:26:04.104Z,36.57
2019-02-24T02:28:31.605Z,33.70
2019-02-24T02:30:59.119Z,34.63
2019-02-24T02:33:26.597Z,32.93
2019-02-24T02:36:13.574Z,40.33
2019-02-24T02:38:41.086Z,39.93
2019-02-24T02:41:08.607Z,36.17
2019-02-24T02:43:36.146Z,37.30
2019-02-24T02:46:03.621Z,30.63
2019-02-24T02:48:50.565Z,29.27
2019-02-24T02:51:18.076Z,36.33
2019-02-24T02:53:45.609Z,29.80
2019-02-24T02:56:13.216Z,36.17
2019-02-24T02:58:41.128Z,36.50
2019-02-24T03:01:08.626Z,41.23
2019-02-24T03:03:36.139Z,36.93
2019-02-24T03:06:41.482Z,42.57
2019-02-24T03:09:10.535Z,37.93
2019-02-24T03:11:38.067Z,38.23
2019-02-24T03:14:05.584Z,34.03
2019-02-24T03:16:33.120Z,33.83
2019-02-24T03:19:00.644Z,35.03
2019-02-24T03:21:28.116Z,31.10
2019-02-24T03:24:15.062Z,29.90
2019-02-24T03:26:42.549Z,30.63
2019-02-24T03:29:10.031Z,32.43
2019-02-24T03:31:37.538Z,28.73
2019-02-24T03:34:05.034Z,29.27
2019-02-24T03:36:32.545Z,33.83
2019-02-24T03:39:00.026Z,27.13
2019-02-24T03:41:27.559Z,28.83
2019-02-24T03:43:55.052Z,27.77
2019-02-24T03:46:22.540Z,26.77
2019-02-24T03:48:49.997Z,30.03
2019-02-24T03:51:17.497Z,28.13
2019-02-24T03:53:44.966Z,33.20
2019-02-24T03:56:12.453Z,31.87
2019-02-24T03:58:39.954Z,33.07
2019-02-24T04:01:07.797Z,27.30
2019-02-24T04:03:35.295Z,31.70
2019-02-24T04:06:02.778Z,36.30
2019-02-24T04:08:30.256Z,32.53
2019-02-24T04:10:57.755Z,32.23
2019-02-24T04:13:25.235Z,29.30
2019-02-24T04:15:52.839Z,31.30
2019-02-24T04:18:20.320Z,31.80
2019-02-24T04:20:47.846Z,32.67
2019-02-24T04:23:15.302Z,28.90
2019-02-24T04:25:42.855Z,26.47
2019-02-24T04:28:10.366Z,27.80
2019-02-24T04:30:37.856Z,36.33
2019-02-24T04:33:05.385Z,29.53
2019-02-24T04:35:32.881Z,30.73
2019-02-24T04:38:00.374Z,31.23
2019-02-24T04:40:27.839Z,26.27
2019-02-24T04:42:55.349Z,31.63
2019-02-24T04:45:22.848Z,30.27
2019-02-24T04:47:50.343Z,33.67
2019-02-24T04:50:17.810Z,36.63
2019-02-24T04:52:45.280Z,31.13
2019-02-24T04:55:12.759Z,33.73
2019-02-24T04:57:40.218Z,29.03
2019-02-24T05:00:07.769Z,26.60
2019-02-24T05:02:35.285Z,32.77
2019-02-24T05:05:02.987Z,29.47
2019-02-24T05:07:30.512Z,31.27
2019-02-24T05:09:58.034Z,34.93
2019-02-24T05:12:25.540Z,29.97
2019-02-24T05:14:53.095Z,28.80
2019-02-24T05:17:20.647Z,26.93
2019-02-24T05:19:48.124Z,33.73
2019-02-24T05:22:15.629Z,30.33
2019-02-24T05:24:43.137Z,34.20
2019-02-24T05:27:10.723Z,27.47
2019-02-24T05:29:45.141Z,26.60
2019-02-24T05:32:07.496Z,27.40
2019-02-24T05:34:35.010Z,27.87
2019-02-24T05:37:02.471Z,25.43
2019-02-24T05:39:29.947Z,34.53
2019-02-24T05:41:57.414Z,25.87
2019-02-24T05:44:24.913Z,28.57
2019-02-24T05:46:52.412Z,25.53
2019-02-24T05:49:19.918Z,26.33
2019-02-24T05:52:06.870Z,29.57
2019-02-24T05:54:34.400Z,21.23
2019-02-24T05:57:01.874Z,27.13
2019-02-24T05:59:29.352Z,23.57
2019-02-24T06:01:56.827Z,25.57
2019-02-24T06:04:24.348Z,29.20
2019-02-24T06:06:51.814Z,31.20
2019-02-24T06:09:19.292Z,24.83
2019-02-24T06:11:46.788Z,26.53
2019-02-24T06:14:14.284Z,26.43
2019-02-24T06:16:41.805Z,26.23
2019-02-24T06:19:09.259Z,29.23
2019-02-24T06:21:36.705Z,30.40
2019-02-24T06:24:04.210Z,27.93
2019-02-24T06:26:31.700Z,31.77
2019-02-24T06:28:59.205Z,30.60
2019-02-24T06:31:26.699Z,29.17
2019-02-24T06:33:54.192Z,28.37
2019-02-24T06:36:21.631Z,27.83
2019-02-24T06:38:49.111Z,34.63
2019-02-24T06:41:16.532Z,28.77
2019-02-24T06:43:44.037Z,29.37
2019-02-24T06:46:11.481Z,28.10
2019-02-24T06:48:39.001Z,24.63
2019-02-24T06:51:08.617Z,26.93
2019-02-24T06:53:36.077Z,27.53
2019-02-24T06:56:03.574Z,27.07
2019-02-24T06:58:31.013Z,33.03
2019-02-24T07:00:58.491Z,27.23
2019-02-24T07:03:25.928Z,25.80
2019-02-24T07:05:53.403Z,22.27
2019-02-24T07:08:20.837Z,26.77
2019-02-24T07:10:48.300Z,22.97
2019-02-24T07:13:15.731Z,27.70
2019-02-24T07:15:43.183Z,21.50
2019-02-24T07:18:10.630Z,19.83
2019-02-24T07:20:38.110Z,19.40
2019-02-24T07:23:25.039Z,23.03
2019-02-24T07:25:52.530Z,20.13
2019-02-24T07:28:19.962Z,20.60
2019-02-24T07:30:47.411Z,26.97
2019-02-24T07:33:14.846Z,25.50
2019-02-24T07:35:42.345Z,23.87
2019-02-24T07:38:09.780Z,29.87
2019-02-24T07:40:37.264Z,19.13
2019-02-24T07:43:04.740Z,21.70
2019-02-24T07:45:32.236Z,23.10
2019-02-24T07:47:59.685Z,22.97
2019-02-24T07:50:28.106Z,20.80
2019-02-24T07:52:55.559Z,23.93
2019-02-24T07:55:23.449Z,24.83
2019-02-24T07:57:50.927Z,25.40
2019-02-24T08:00:18.376Z,23.83
2019-02-24T08:02:45.869Z,21.50
2019-02-24T08:05:13.346Z,18.57
2019-02-24T08:07:40.807Z,16.43
2019-02-24T08:10:08.263Z,18.83
2019-02-24T08:12:35.722Z,16.37
2019-02-24T08:15:03.530Z,19.57
2019-02-24T08:17:31.441Z,22.67
2019-02-24T08:19:58.903Z,20.03
2019-02-24T08:22:26.384Z,15.23
2019-02-24T08:24:53.848Z,20.13
2019-02-24T08:27:21.373Z,20.80
2019-02-24T08:30:08.615Z,15.53
2019-02-24T08:32:36.354Z,16.23
2019-02-24T08:35:04.388Z,16.63
2019-02-24T08:37:32.168Z,16.80
2019-02-24T08:39:59.617Z,18.80
2019-02-24T08:42:27.079Z,16.00
2019-02-24T08:44:54.549Z,19.07
2019-02-24T08:47:22.015Z,15.20
2019-02-24T08:49:49.451Z,17.50
2019-02-24T08:52:16.938Z,17.03
2019-02-24T08:54:44.416Z,14.57
2019-02-24T08:57:11.875Z,16.70
2019-02-24T08:59:39.328Z,18.50
2019-02-24T09:02:06.807Z,18.33
2019-02-24T09:04:34.642Z,15.33
2019-02-24T09:07:02.072Z,18.47
2019-02-24T09:09:29.550Z,17.47
2019-02-24T09:11:56.982Z,16.37
2019-02-24T09:14:24.439Z,13.27
2019-02-24T09:16:51.875Z,15.90
2019-02-24T09:19:19.361Z,13.13
2019-02-24T09:21:46.800Z,11.00
2019-02-24T09:24:14.243Z,13.67
2019-02-24T09:26:41.695Z,12.77
2019-02-24T09:29:09.163Z,13.13
2019-02-24T09:31:36.647Z,11.50
2019-02-24T09:34:04.147Z,12.63
2019-02-24T09:36:31.617Z,18.23
2019-02-24T09:38:59.062Z,11.63
2019-02-24T09:41:26.518Z,11.10
2019-02-24T09:43:53.998Z,12.07
2019-02-24T09:46:21.458Z,13.07
2019-02-24T09:48:48.959Z,9.90
2019-02-24T09:51:16.711Z,10.33
2019-02-24T09:53:44.216Z,11.93
2019-02-24T09:56:11.641Z,11.60
2019-02-24T09:58:39.116Z,10.23
2019-02-24T10:01:10.756Z,9.93
2019-02-24T10:03:35.869Z,10.10
2019-02-24T10:06:03.329Z,13.67
2019-02-24T10:08:30.803Z,12.70
2019-02-24T10:10:58.246Z,10.30
2019-02-24T10:13:25.707Z,11.83
2019-02-24T10:15:53.155Z,12.67
2019-02-24T10:18:20.614Z,10.95
2019-02-24T10:20:48.089Z,11.05
2019-02-24T10:23:15.532Z,13.03
2019-02-24T10:25:42.988Z,10.63
2019-02-24T10:28:10.414Z,13.13
2019-02-24T10:30:38.095Z,10.13
2019-02-24T10:33:05.689Z,14.15
2019-02-24T10:35:33.149Z,11.77
2019-02-24T10:38:00.596Z,12.13
2019-02-24T10:40:28.076Z,11.00
2019-02-24T10:42:55.540Z,11.10
2019-02-24T10:45:23.030Z,10.80
2019-02-24T10:47:50.503Z,10.82
2019-02-24T10:50:17.959Z,13.00
2019-02-24T10:52:45.395Z,10.98
2019-02-24T10:55:12.867Z,8.88
2019-02-24T10:57:40.323Z,10.98
2019-02-24T11:00:10.127Z,10.82
2019-02-24T11:02:37.630Z,10.55
2019-02-24T11:05:05.954Z,10.70
2019-02-24T11:07:34.232Z,13.28
2019-02-24T11:10:03.791Z,10.43
2019-02-24T11:12:30.989Z,9.08
2019-02-24T11:14:58.476Z,8.30
2019-02-24T11:17:25.964Z,8.90
2019-02-24T11:19:53.438Z,11.75
2019-02-24T11:22:20.907Z,15.00
2019-02-24T11:24:48.342Z,8.63
2019-02-24T11:27:15.793Z,11.93
2019-02-24T11:29:43.293Z,9.33
2019-02-24T11:32:10.796Z,9.93
2019-02-24T11:34:38.301Z,11.05
2019-02-24T11:37:05.853Z,9.15
2019-02-24T11:39:33.618Z,9.58
2019-02-24T11:42:01.193Z,10.95
2019-02-24T11:44:28.714Z,9.93
2019-02-24T11:46:56.594Z,13.45
2019-02-24T11:49:24.368Z,9.08
2019-02-24T11:51:51.943Z,9.73
2019-02-24T11:54:19.419Z,9.43
2019-02-24T11:56:46.923Z,12.35
2019-02-24T11:59:14.340Z,10.10
2019-02-24T12:01:47.621Z,10.93
2019-02-24T12:04:11.044Z,9.78
2019-02-24T12:06:38.549Z,12.88
2019-02-24T12:09:05.982Z,11.05
2019-02-24T12:11:35.170Z,10.90
2019-02-24T12:14:02.596Z,10.05
2019-02-24T12:16:30.057Z,9.75
2019-02-24T12:18:57.493Z,10.85
2019-02-24T12:21:24.930Z,8.83
2019-02-24T12:23:52.383Z,9.55
2019-02-24T12:26:19.835Z,10.50
2019-02-24T12:28:47.295Z,10.45
2019-02-24T12:31:14.754Z,10.35
2019-02-24T12:33:42.713Z,9.13
2019-02-24T12:36:10.210Z,9.15
2019-02-24T12:38:37.713Z,10.40
2019-02-24T12:41:05.190Z,9.28
2019-02-24T12:43:32.694Z,8.43
2019-02-24T12:46:00.128Z,10.98
2019-02-24T12:48:27.604Z,10.18
2019-02-24T12:50:55.041Z,9.43
2019-02-24T12:53:22.700Z,9.28
2019-02-24T12:55:50.351Z,10.82
2019-02-24T12:58:18.075Z,12.93
2019-02-24T13:00:45.653Z,8.85
2019-02-24T13:03:13.241Z,7.75
2019-02-24T13:05:40.785Z,7.67
2019-02-24T13:08:08.370Z,7.97
2019-02-24T13:10:35.875Z,9.00
2019-02-24T13:13:03.435Z,8.15
2019-02-24T13:15:31.121Z,7.75
2019-02-24T13:17:58.807Z,9.30
2019-02-24T13:20:26.668Z,10.08
2019-02-24T13:22:54.255Z,9.58
2019-02-24T13:25:21.863Z,8.90
2019-02-24T13:27:49.481Z,9.55
2019-02-24T13:30:17.091Z,6.90
2019-02-24T13:32:44.646Z,7.20
2019-02-24T13:35:12.161Z,9.40
2019-02-24T13:37:39.771Z,10.40
2019-02-24T13:40:09.472Z,9.13
2019-02-24T13:42:37.024Z,6.25
2019-02-24T13:45:06.022Z,8.43
2019-02-24T13:47:33.521Z,8.95
2019-02-24T13:50:01.037Z,8.23
2019-02-24T13:52:28.691Z,6.47
2019-02-24T13:54:56.211Z,9.55
2019-02-24T13:57:23.704Z,9.33
2019-02-24T13:59:51.247Z,8.63
2019-02-24T14:02:24.131Z,8.53
2019-02-24T14:04:48.297Z,10.28
2019-02-24T14:07:15.883Z,8.10
2019-02-24T14:09:43.477Z,7.78
2019-02-24T14:12:10.997Z,8.33
2019-02-24T14:14:38.532Z,7.83
2019-02-24T14:17:06.058Z,7.72
2019-02-24T14:19:33.646Z,8.95
2019-02-24T14:22:01.260Z,7.50
2019-02-24T14:24:28.754Z,7.35
2019-02-24T14:26:56.521Z,9.30
2019-02-24T14:29:24.622Z,8.48
2019-02-24T14:31:52.471Z,5.85
2019-02-24T14:34:21.416Z,8.75
2019-02-24T14:36:49.005Z,7.78
2019-02-24T14:39:16.525Z,7.65
2019-02-24T14:41:44.147Z,7.28
2019-02-24T14:44:11.734Z,6.30
2019-02-24T14:46:39.238Z,7.67
2019-02-24T14:49:08.147Z,5.85
2019-02-24T14:51:35.718Z,7.25
2019-02-24T14:54:03.325Z,6.37
2019-02-24T14:56:30.805Z,9.00
2019-02-24T14:58:58.355Z,8.68
2019-02-24T15:01:25.868Z,7.55
2019-02-24T15:03:53.473Z,7.70
2019-02-24T15:06:21.069Z,6.30
2019-02-24T15:08:48.656Z,8.95
2019-02-24T15:11:17.320Z,8.55
2019-02-24T15:13:44.783Z,10.25
2019-02-24T15:16:12.344Z,6.85
2019-02-24T15:18:41.923Z,6.97
2019-02-24T15:21:11.082Z,6.85
2019-02-24T15:23:38.645Z,8.65
2019-02-24T15:26:07.067Z,9.83
2019-02-24T15:28:34.556Z,10.15
2019-02-24T15:31:02.093Z,8.50
2019-02-24T15:33:29.738Z,8.10
2019-02-24T15:35:57.231Z,8.95
2019-02-24T15:38:24.719Z,9.15
2019-02-24T15:40:52.223Z,7.22
2019-02-24T15:43:19.658Z,8.15
2019-02-24T15:45:47.186Z,6.47
2019-02-24T15:48:14.699Z,9.53
2019-02-24T15:50:42.209Z,7.85
2019-02-24T15:53:09.706Z,7.30
2019-02-24T15:55:37.202Z,8.05
2019-02-24T15:58:05.026Z,8.45
2019-02-24T16:00:32.510Z,8.85
2019-02-24T16:03:02.063Z,9.20
2019-02-24T16:05:29.762Z,6.58
2019-02-24T16:07:57.346Z,8.38
2019-02-24T16:10:24.890Z,7.40
2019-02-24T16:12:52.435Z,8.83
2019-02-24T16:15:20.038Z,10.70
2019-02-24T16:17:47.673Z,10.55
2019-02-24T16:20:17.597Z,10.58
2019-02-24T16:22:45.092Z,10.72
2019-02-24T16:25:12.587Z,11.03
2019-02-24T16:27:40.159Z,14.13
2019-02-24T16:30:08.807Z,9.38
2019-02-24T16:32:36.427Z,11.93
2019-02-24T16:35:06.654Z,11.45
2019-02-24T16:37:34.099Z,9.50
2019-02-24T16:40:01.579Z,14.33
2019-02-24T16:42:29.035Z,9.98
2019-02-24T16:44:56.526Z,7.53
2019-02-24T16:47:23.972Z,10.50
2019-02-24T16:49:51.428Z,12.40
2019-02-24T16:52:18.859Z,10.15
2019-02-24T16:54:52.464Z,13.40
2019-02-24T16:57:15.593Z,10.47
2019-02-24T16:59:43.071Z,12.03
2019-02-24T17:02:10.513Z,8.43
2019-02-24T17:04:37.960Z,9.57
2019-02-24T17:07:05.395Z,12.83
2019-02-24T17:09:32.872Z,10.80
2019-02-24T17:12:00.300Z,11.70
2019-02-24T17:14:27.758Z,13.77
2019-02-24T17:17:01.397Z,12.03
2019-02-24T17:19:24.459Z,13.50
2019-02-24T17:21:51.892Z,11.00
2019-02-24T17:24:19.376Z,13.73
2019-02-24T17:26:46.795Z,15.13
2019-02-24T17:29:14.276Z,13.90
2019-02-24T17:31:41.773Z,17.30
2019-02-24T17:34:09.246Z,16.10
2019-02-24T17:36:37.066Z,13.33
2019-02-24T17:39:05.696Z,14.97
2019-02-24T17:41:33.147Z,14.50
2019-02-24T17:44:00.599Z,18.30
2019-02-24T17:46:28.067Z,15.30
2019-02-24T17:48:55.548Z,22.57
2019-02-24T17:51:23.297Z,15.87
2019-02-24T17:53:50.735Z,20.23
2019-02-24T17:56:18.202Z,26.33
2019-02-24T17:58:45.663Z,31.33
2019-02-24T18:01:13.243Z,24.73
2019-02-24T18:03:40.735Z,25.87
2019-02-24T18:06:08.270Z,19.90
2019-02-24T18:08:56.093Z,17.77
2019-02-24T18:11:27.004Z,23.50
2019-02-24T18:13:54.472Z,22.67
2019-02-24T18:16:22.053Z,30.77
2019-02-24T18:18:49.886Z,27.17
2019-02-24T18:21:17.411Z,24.53
2019-02-24T18:23:45.797Z,25.10
2019-02-24T18:26:13.350Z,26.77
2019-02-24T18:28:40.820Z,30.03
2019-02-24T18:31:08.619Z,29.73
2019-02-24T18:33:48.093Z,33.27
2019-02-24T18:36:12.436Z,31.67
2019-02-24T18:38:43.002Z,27.93
2019-02-24T18:41:10.549Z,28.10
2019-02-24T18:43:38.073Z,26.23
2019-02-24T18:46:05.719Z,24.60
2019-02-24T18:48:33.315Z,23.27
2019-02-24T18:51:01.331Z,21.63
2019-02-24T18:53:28.883Z,28.63
2019-02-24T18:55:56.468Z,27.93
2019-02-24T18:58:24.167Z,31.30
2019-02-24T19:00:51.779Z,26.27
2019-02-24T19:03:19.305Z,29.43
2019-02-24T19:05:47.089Z,23.67
2019-02-24T19:08:15.333Z,51.77
2019-02-24T19:10:43.172Z,44.63
2019-02-24T19:13:10.831Z,35.37
2019-02-24T19:15:38.326Z,31.10
2019-02-24T19:18:06.193Z,27.93
2019-02-24T19:20:33.707Z,27.20
2019-02-24T19:23:02.354Z,27.50
2019-02-24T19:25:29.842Z,27.50
2019-02-24T19:27:57.393Z,27.30
2019-02-24T19:30:24.902Z,27.43
2019-02-24T19:32:52.429Z,27.57
2019-02-24T19:35:20.092Z,27.60
2019-02-24T19:37:47.670Z,30.37
2019-02-24T19:40:15.701Z,29.67
2019-02-24T19:42:43.294Z,28.23
2019-02-24T19:45:13.527Z,22.70
2019-02-24T19:47:43.556Z,26.30
2019-02-24T19:50:16.989Z,31.20
2019-02-24T19:52:44.519Z,31.53
2019-02-24T19:55:12.069Z,30.57
2019-02-24T19:57:42.029Z,30.97
2019-02-24T20:00:17.876Z,35.60
2019-02-24T20:02:45.421Z,34.77
2019-02-24T20:05:13.034Z,26.37
2019-02-24T20:07:40.560Z,25.63
2019-02-24T20:10:08.543Z,29.30
2019-02-24T20:12:36.129Z,26.97
2019-02-24T20:15:04.807Z,27.60
2019-02-24T20:17:32.403Z,24.13
2019-02-24T20:19:59.940Z,33.40
2019-02-24T20:24:55.382Z,29.50
2019-02-24T20:27:22.938Z,30.37
2019-02-24T20:29:50.868Z,29.80
2019-02-24T20:32:18.363Z,32.27
2019-02-24T20:34:45.827Z,32.10
2019-02-24T20:37:13.319Z,30.77
2019-02-24T20:39:41.146Z,30.73
2019-02-24T20:42:08.656Z,31.77
2019-02-24T20:44:36.199Z,30.27
2019-02-24T20:47:03.684Z,30.60
2019-02-24T20:49:31.224Z,33.07
2019-02-24T20:51:58.777Z,35.30
2019-02-24T20:54:26.255Z,22.97
2019-02-24T20:56:53.739Z,26.00
2019-02-24T20:59:21.356Z,23.17
2019-02-24T21:01:48.975Z,26.57
2019-02-24T21:04:17.020Z,25.30
2019-02-24T21:06:47.651Z,24.70
2019-02-24T21:09:15.257Z,28.40
2019-02-24T21:11:43.692Z,25.23
2019-02-24T21:14:11.236Z,32.07
2019-02-24T21:16:39.126Z,26.83
2019-02-24T21:19:07.078Z,31.90
2019-02-24T21:21:35.333Z,26.60
2019-02-24T21:24:02.909Z,27.07
2019-02-24T21:26:30.558Z,25.50
2019-02-24T21:28:58.001Z,23.93
2019-02-24T21:31:25.502Z,26.97
2019-02-24T21:33:53.077Z,25.47
2019-02-24T21:36:20.587Z,26.63
2019-02-24T21:38:48.056Z,23.27
2019-02-24T21:41:16.112Z,27.03
2019-02-24T21:43:43.599Z,24.23
2019-02-24T21:46:11.760Z,24.20
2019-02-24T21:48:39.321Z,22.13
2019-02-24T21:51:06.830Z,22.93
2019-02-24T21:53:34.347Z,23.63
2019-02-24T21:56:01.890Z,29.00
2019-02-24T21:58:29.647Z,22.27
2019-02-24T22:00:57.133Z,28.00
2019-02-24T22:03:25.366Z,22.97
2019-02-24T22:05:54.863Z,26.87
2019-02-24T22:08:22.382Z,26.67
2019-02-24T22:10:49.883Z,23.63
2019-02-24T22:13:17.329Z,28.40
2019-02-24T22:15:44.819Z,22.30
2019-02-24T22:18:12.491Z,22.37
2019-02-24T22:20:39.970Z,25.77
2019-02-24T22:23:07.486Z,26.80
2019-02-24T22:25:34.997Z,24.93
2019-02-24T22:28:02.511Z,29.27
2019-02-24T22:30:30.018Z,26.97
2019-02-24T22:32:57.519Z,29.33
2019-02-24T22:35:25.008Z,28.80
2019-02-24T22:37:52.556Z,27.17
2019-02-24T22:40:20.020Z,33.57
2019-02-24T22:43:06.952Z,26.17
2019-02-24T22:45:34.474Z,29.00
2019-02-24T22:48:03.144Z,28.37
2019-02-24T22:50:31.176Z,28.57
2019-02-24T22:52:58.680Z,32.77
2019-02-24T22:55:26.190Z,25.73
2019-02-24T22:57:53.722Z,26.27
2019-02-24T23:00:44.936Z,31.70
2019-02-24T23:03:12.408Z,27.60
2019-02-24T23:05:39.907Z,27.43
2019-02-24T23:08:07.414Z,23.83
2019-02-24T23:10:34.892Z,35.17
2019-02-24T23:13:02.421Z,28.50
2019-02-24T23:15:29.889Z,19.90
2019-02-24T23:17:58.035Z,19.53
2019-02-24T23:20:25.997Z,21.57
2019-02-24T23:22:53.568Z,27.13
2019-02-24T23:25:21.178Z,23.73
2019-02-24T23:27:48.694Z,21.50
2019-02-24T23:30:16.167Z,29.43
2019-02-24T23:32:43.691Z,28.40
2019-02-24T23:35:11.223Z,25.23
2019-02-24T23:37:38.687Z,26.10
2019-02-24T23:40:06.431Z,26.30
2019-02-24T23:42:33.908Z,26.23
2019-02-24T23:45:09.917Z,35.83
2019-02-24T23:47:30.673Z,24.80
2019-02-24T23:49:58.242Z,26.90
2019-02-24T23:52:25.698Z,23.27
2019-02-24T23:54:53.207Z,32.13
2019-02-24T23:57:20.717Z,22.73
2019-02-24T23:59:48.236Z,25.70
